Detalii statie TRANSAVIA REDIU [0000197C]

Toti senzorii

Date Temperatura solului [C]Precipitatii [mm]Voltaj baterie [mV]Leaf Wetness [Min]HC Air temperature [C]HC Relative humidity [%]Punctul de roua [C]
medieminmaxsumaultimatimpmedieminmaxmediemediemin
2019-06-15 18:00:00 25.4 25.3 25.6 0 7098 28.88 28.53 29.81 0 0 0
2019-06-15 19:00:00 25.5 25.4 25.6 0 7088 26.13 25.08 27.67 0 0 0
2019-06-15 20:00:00 25.4 25.3 25.6 0 6942 23.6 22.11 24.97 0 0 0
2019-06-15 21:00:00 25 24.8 25.3 0 6766 21.34 20.73 22.43 0 0 0
2019-06-15 22:00:00 24.6 24.4 24.9 0 6756 22.14 21.28 23.16 0 0 0
2019-06-15 23:00:00 24.2 24 24.5 0 6748 20.09 19.41 20.92 0 0 0
2019-06-16 00:00:00 23.8 23.7 24.1 0 6756 19.03 18.11 19.51 0 0 0
2019-06-16 01:00:00 23.4 23.2 23.6 0 6738 17.03 16.39 17.95 8.33 0
2019-06-16 02:00:00 23 22.7 23.2 0 6718 16.16 15.79 16.37 75 0
2019-06-16 03:00:00 22.5 22.3 22.8 0 6718 15.63 15.44 15.9 50 7.8 0
2019-06-16 04:00:00 22.2 22 22.5 0 6708 16.05 15.59 16.6 0 0 0
2019-06-16 05:00:00 21.8 21.7 22.1 0 6698 16.27 15.79 16.76 8.33 0
2019-06-16 06:00:00 21.5 21.4 21.7 0 6748 16.94 15.9 18.2 50 8.4 0
2019-06-16 07:00:00 21.3 21.3 21.5 0 6816 20.32 18.23 22.16 0 0 0
2019-06-16 08:00:00 21.3 21.3 21.5 0 6864 22.72 21.8 24.21 0 0 0
2019-06-16 09:00:00 21.7 21.5 21.9 0 6874 24.12 23.36 24.69 0 0 0
2019-06-16 10:00:00 22.1 21.8 22.4 0 6914 25.38 24.56 26.51 0 0 0
2019-06-16 11:00:00 22.6 22.3 23.1 0 7030 26.87 26.04 27.75 0 0 0
2019-06-16 12:00:00 23.2 22.9 23.6 0 7098 27.59 25.61 28.95 0 0 0
2019-06-16 13:00:00 23.9 23.6 24.4 0 7098 28.32 27.67 29.32 0 0 0
2019-06-16 14:00:00 24.7 24.3 25 0 7098 29.14 28.4 30.02 0 0 0
2019-06-16 15:00:00 25.4 25.1 25.7 0 7098 29.43 28.18 30.18 0 0 0
2019-06-16 16:00:00 25.7 25.7 25.8 0 7098 29.29 28.78 30.04 0 0 0
2019-06-16 17:00:00 25.9 25.9 26.1 0 7098 29.24 28.52 29.89 0 0 0
2019-06-16 18:00:00 26 26 26.1 0 6972 28.41 27.71 29 0 0 0
2019-06-16 19:00:00 25.9 25.8 26.1 0.2 6874 20.12 18.43 26.31 0 0 0
2019-06-16 20:00:00 25.5 25.3 25.8 0 6796 20.65 18.73 21.65 0 0 0
2019-06-16 21:00:00 24.9 24.7 25.3 0 6748 19.47 18.78 20.47 0 0 0
2019-06-16 22:00:00 24.5 24.3 24.7 0 6748 18.41 18.17 18.84 0 0 0
2019-06-16 23:00:00 24 23.8 24.2 0 6748 17.85 17.42 18.04 33.33 5.9 0
2019-06-17 00:00:00 23.6 23.4 23.8 0 6748 17.23 17.11 17.45 0 0 0
2019-06-17 01:00:00 23.2 23 23.4 0 6738 17.82 17.36 18.03 8.33 0
2019-06-17 02:00:00 22.9 22.6 23.1 0 6718 17.71 17.39 18.06 0 0 0
2019-06-17 03:00:00 22.4 22.3 22.6 0 6708 17.14 17.02 17.31 50 8.5 0
2019-06-17 04:00:00 22.1 21.8 22.4 0 6718 16.93 16.75 17.16 0 0 0
2019-06-17 05:00:00 21.7 21.7 22 0 6718 17.18 17.12 17.37 0 0 0
2019-06-17 06:00:00 21.5 21.3 21.6 0 6816 17.88 17.19 18.42 16.66 2.8 0
2019-06-17 07:00:00 21.3 21.3 21.5 0 6874 19.41 18.48 20.91 0 0 0
2019-06-17 08:00:00 21.3 21.2 21.5 0.2 6922 21.49 20.45 22.91 0 0 0
2019-06-17 09:00:00 21.5 21.4 21.7 0 6922 22.92 22.27 23.71 0 0 0
2019-06-17 10:00:00 21.8 21.7 22.1 0 6922 24.13 22.72 25.12 0 0 0
2019-06-17 11:00:00 22.3 22.1 22.7 0 7060 25.12 24.35 25.79 0 0 0
2019-06-17 12:00:00 22.9 22.8 23.3 0.2 7098 25.14 24.28 26.65 0 0 0
2019-06-17 13:00:00 23.6 23.2 24.1 0 7098 26.08 25.28 27.08 0 0 0
2019-06-17 14:00:00 24.4 24.1 24.8 0 7098 27.04 25.76 28.27 0 0 0
2019-06-17 15:00:00 24.9 24.7 25.1 0.2 7098 23.11 19.41 26.67 0 0 0
2019-06-17 16:00:00 24.6 24.4 24.9 0 7098 22.47 19.69 24.02 0 0 0
2019-06-17 17:00:00 24.4 24.4 24.5 0 7098 23.33 22.91 24.11 0 0 0